createdAt,value
2019-02-28T00:03:04.317Z,100.00
2019-02-28T00:08:09.832Z,100.00
2019-02-28T00:13:15.312Z,100.00
2019-02-28T00:18:20.777Z,100.00
2019-02-28T00:23:26.313Z,100.00
2019-02-28T00:28:31.792Z,100.00
2019-02-28T00:33:37.406Z,100.00
2019-02-28T00:38:42.877Z,100.00
2019-02-28T00:43:48.272Z,100.00
2019-02-28T00:48:54.186Z,100.00
2019-02-28T00:53:59.708Z,100.00
2019-02-28T00:59:05.305Z,100.00
2019-02-28T01:04:10.717Z,100.00
2019-02-28T01:09:16.216Z,100.00
2019-02-28T01:14:21.695Z,100.00
2019-02-28T01:19:27.086Z,100.00
2019-02-28T01:24:34.764Z,100.00
2019-02-28T01:29:39.663Z,100.00
2019-02-28T01:34:45.062Z,100.00
2019-02-28T01:39:50.460Z,100.00
2019-02-28T01:44:55.887Z,100.00
2019-02-28T01:50:01.388Z,100.00
2019-02-28T01:55:07.617Z,100.00
2019-02-28T02:00:14.722Z,100.00
2019-02-28T02:05:20.267Z,100.00
2019-02-28T02:10:25.761Z,100.00
2019-02-28T02:15:31.277Z,100.00
2019-02-28T02:20:36.666Z,100.00
2019-02-28T02:25:42.047Z,100.00
2019-02-28T02:30:50.919Z,100.00
2019-02-28T02:35:54.495Z,100.00
2019-02-28T02:41:01.071Z,100.00
2019-02-28T02:46:06.670Z,100.00
2019-02-28T02:51:12.672Z,100.00
2019-02-28T02:56:18.227Z,100.00
2019-02-28T03:01:24.522Z,100.00
2019-02-28T03:06:30.062Z,100.00
2019-02-28T03:11:35.446Z,100.00
2019-02-28T03:16:40.930Z,100.00
2019-02-28T03:21:50.995Z,100.00
2019-02-28T03:26:53.443Z,100.00
2019-02-28T03:31:59.542Z,100.00
2019-02-28T03:37:05.436Z,100.00
2019-02-28T03:42:10.828Z,100.00
2019-02-28T03:47:22.779Z,100.00
2019-02-28T03:52:23.421Z,100.00
2019-02-28T03:57:29.599Z,100.00
2019-02-28T04:02:35.092Z,100.00
2019-02-28T04:07:40.605Z,100.00
2019-02-28T04:12:47.106Z,100.00
2019-02-28T04:17:52.742Z,100.00
2019-02-28T04:23:00.076Z,100.00
2019-02-28T04:28:05.269Z,99.84
2019-02-28T04:33:10.667Z,99.43
2019-02-28T04:38:20.543Z,99.73
2019-02-28T04:43:23.349Z,99.55
2019-02-28T04:48:28.787Z,99.38
2019-02-28T04:53:34.246Z,99.55
2019-02-28T04:58:39.785Z,99.65
2019-02-28T05:03:45.227Z,99.44
2019-02-28T05:08:50.642Z,99.25
2019-02-28T05:13:56.037Z,99.17
2019-02-28T05:19:02.294Z,99.22
2019-02-28T05:24:08.611Z,99.14
2019-02-28T05:29:14.187Z,98.98
2019-02-28T05:34:19.587Z,99.22
2019-02-28T05:39:25.016Z,98.89
2019-02-28T05:44:30.472Z,99.21
2019-02-28T05:49:35.947Z,99.15
2019-02-28T05:54:41.436Z,98.85
2019-02-28T05:59:46.907Z,99.19
2019-02-28T06:04:52.321Z,99.35
2019-02-28T06:09:57.797Z,99.61
2019-02-28T06:15:03.787Z,99.69
2019-02-28T06:20:09.904Z,99.78
2019-02-28T06:25:23.634Z,99.88
2019-02-28T06:30:22.918Z,99.89
2019-02-28T06:35:28.278Z,99.91
2019-02-28T06:40:34.553Z,99.97
2019-02-28T06:45:40.031Z,100.00
2019-02-28T06:50:45.584Z,100.00
2019-02-28T06:55:51.031Z,99.98
2019-02-28T07:00:56.529Z,100.00
2019-02-28T07:06:01.994Z,100.00
2019-02-28T07:11:10.317Z,100.00
2019-02-28T07:16:15.901Z,100.00
2019-02-28T07:21:21.411Z,100.00
2019-02-28T07:26:26.737Z,100.00
2019-02-28T07:31:32.437Z,100.00
2019-02-28T07:36:38.001Z,100.00
2019-02-28T07:41:43.389Z,100.00
2019-02-28T07:46:48.734Z,100.00
2019-02-28T07:51:56.897Z,100.00
2019-02-28T07:57:01.317Z,99.61
2019-02-28T08:02:06.776Z,99.31
2019-02-28T08:07:14.745Z,98.39
2019-02-28T08:12:19.292Z,97.98
2019-02-28T08:23:29.836Z,97.18
2019-02-28T08:28:36.797Z,97.64
2019-02-28T08:33:43.621Z,97.82
2019-02-28T08:38:49.101Z,97.44
2019-02-28T08:43:54.456Z,97.42
2019-02-28T08:48:59.967Z,98.34
2019-02-28T08:54:06.133Z,98.34
2019-02-28T08:59:18.506Z,98.48
2019-02-28T09:04:20.082Z,98.81
2019-02-28T09:09:25.698Z,99.07
2019-02-28T09:14:31.206Z,98.91
2019-02-28T09:19:39.482Z,98.62
2019-02-28T09:24:46.773Z,98.69
2019-02-28T09:29:54.837Z,98.45
2019-02-28T09:35:02.567Z,98.40
2019-02-28T09:40:09.255Z,98.13
2019-02-28T09:45:16.913Z,97.95
2019-02-28T09:50:23.323Z,98.09
2019-02-28T09:55:34.098Z,97.91
2019-02-28T10:00:36.123Z,98.01
2019-02-28T10:05:42.389Z,98.01
2019-02-28T10:10:48.738Z,98.20
2019-02-28T10:15:54.172Z,98.25
2019-02-28T10:21:03.284Z,98.25
2019-02-28T10:26:08.817Z,98.12
2019-02-28T10:31:14.112Z,98.50
2019-02-28T10:36:19.476Z,97.83
2019-02-28T10:41:27.996Z,97.85
2019-02-28T10:46:31.893Z,98.14
2019-02-28T10:51:37.497Z,97.58
2019-02-28T10:56:43.318Z,97.15
2019-02-28T11:01:48.881Z,95.78
2019-02-28T11:06:54.361Z,95.81
2019-02-28T11:11:59.928Z,94.99
2019-02-28T11:17:08.946Z,94.99
2019-02-28T11:22:12.496Z,94.21
2019-02-28T11:27:19.690Z,93.79
2019-02-28T11:32:26.445Z,93.78
2019-02-28T11:37:32.147Z,93.79
2019-02-28T11:42:37.773Z,94.07
2019-02-28T11:47:43.449Z,94.30
2019-02-28T11:52:48.987Z,94.99
2019-02-28T11:57:54.862Z,95.15
2019-02-28T12:03:00.995Z,94.94
2019-02-28T12:08:10.355Z,95.62
2019-02-28T12:13:16.522Z,94.54
2019-02-28T12:18:21.447Z,94.35
2019-02-28T12:23:28.977Z,95.09
2019-02-28T12:28:35.233Z,93.87
2019-02-28T12:33:41.627Z,92.06
2019-02-28T12:38:47.135Z,91.15
2019-02-28T12:43:53.193Z,91.81
2019-02-28T12:48:58.914Z,92.22
2019-02-28T12:54:04.493Z,93.08
2019-02-28T12:59:10.761Z,93.27
2019-02-28T13:04:16.471Z,92.25
2019-02-28T13:09:22.042Z,91.19
2019-02-28T13:14:27.432Z,91.20
2019-02-28T13:19:32.821Z,91.79
2019-02-28T13:24:42.486Z,92.38
2019-02-28T13:29:45.927Z,93.03
2019-02-28T13:34:51.684Z,93.59
2019-02-28T13:39:57.141Z,91.03
2019-02-28T13:45:02.632Z,89.94
2019-02-28T13:50:11.509Z,90.58
2019-02-28T13:55:18.881Z,90.05
2019-02-28T14:00:28.257Z,89.24
2019-02-28T14:05:38.764Z,89.64
2019-02-28T14:10:41.036Z,89.33
2019-02-28T14:15:48.003Z,90.33
2019-02-28T14:20:53.735Z,90.87
2019-02-28T14:25:59.257Z,91.47
2019-02-28T14:31:04.713Z,91.57
2019-02-28T14:36:10.533Z,91.82
2019-02-28T14:41:16.591Z,91.67
2019-02-28T14:46:22.037Z,91.83
2019-02-28T14:51:28.623Z,91.85
2019-02-28T14:56:35.115Z,91.74
2019-02-28T15:01:40.587Z,92.32
2019-02-28T15:06:47.329Z,92.57
2019-02-28T15:11:53.112Z,92.66
2019-02-28T15:17:01.532Z,92.45
2019-02-28T15:22:05.698Z,92.80
2019-02-28T15:27:11.266Z,93.23
2019-02-28T15:32:19.402Z,93.58
2019-02-28T15:37:24.846Z,93.09
2019-02-28T15:42:31.450Z,92.72
2019-02-28T15:47:36.902Z,92.30
2019-02-28T15:52:42.374Z,92.46
2019-02-28T15:57:47.972Z,92.54
2019-02-28T16:02:55.257Z,92.66
2019-02-28T16:08:00.827Z,92.96
2019-02-28T16:13:07.803Z,92.94
2019-02-28T16:18:13.233Z,92.91
2019-02-28T16:23:23.683Z,93.29
2019-02-28T16:28:27.294Z,93.92
2019-02-28T16:33:32.643Z,93.79
2019-02-28T16:38:38.049Z,94.33
2019-02-28T16:43:43.468Z,95.02
2019-02-28T16:48:49.023Z,95.42
2019-02-28T16:53:54.454Z,95.75
2019-02-28T16:59:00.731Z,95.85
2019-02-28T17:04:06.756Z,96.01
2019-02-28T17:09:19.525Z,96.03
2019-02-28T17:14:26.317Z,95.86
2019-02-28T17:19:32.461Z,95.69
2019-02-28T17:24:38.140Z,95.69
2019-02-28T17:29:50.647Z,95.65
2019-02-28T17:34:58.986Z,95.65
2019-02-28T17:40:03.713Z,95.60
2019-02-28T17:45:20.137Z,95.62
2019-02-28T17:55:45.917Z,95.14
2019-02-28T18:01:09.348Z,94.92
2019-02-28T18:06:29.439Z,94.98
2019-02-28T18:12:01.798Z,95.05
2019-02-28T18:17:34.426Z,95.25
2019-02-28T18:34:40.563Z,95.34
2019-02-28T18:39:48.291Z,95.24
2019-02-28T18:44:54.277Z,95.09
2019-02-28T18:49:59.767Z,94.95
2019-02-28T18:55:06.428Z,94.31
2019-02-28T19:00:13.687Z,93.81
2019-02-28T19:05:19.286Z,93.76
2019-02-28T19:10:27.665Z,92.91
2019-02-28T19:15:33.034Z,92.50
2019-02-28T19:20:41.542Z,92.30
2019-02-28T19:25:47.002Z,92.10
2019-02-28T19:30:52.359Z,92.15
2019-02-28T19:35:57.847Z,92.30
2019-02-28T19:41:03.294Z,92.30
2019-02-28T19:46:09.627Z,92.61
2019-02-28T19:51:16.242Z,92.57
2019-02-28T19:56:24.647Z,92.67
2019-02-28T20:01:29.969Z,92.73
2019-02-28T20:06:35.457Z,92.81
2019-02-28T20:11:40.992Z,92.67
2019-02-28T20:16:46.534Z,92.65
2019-02-28T20:21:51.957Z,92.68
2019-02-28T20:26:57.468Z,92.55
2019-02-28T20:32:03.049Z,92.45
2019-02-28T20:37:11.510Z,92.49
2019-02-28T20:42:16.980Z,92.46
2019-02-28T20:47:22.429Z,92.33
2019-02-28T20:52:28.049Z,92.41
2019-02-28T20:57:33.381Z,92.35
2019-02-28T21:02:39.220Z,92.66
2019-02-28T21:07:44.665Z,93.00
2019-02-28T21:12:50.353Z,93.04
2019-02-28T21:17:55.791Z,93.14
2019-02-28T21:23:01.192Z,93.35
2019-02-28T21:28:06.872Z,93.59
2019-02-28T21:33:12.332Z,93.66
2019-02-28T21:38:17.829Z,93.80
2019-02-28T21:43:23.266Z,93.99
2019-02-28T21:48:28.677Z,94.00
2019-02-28T21:53:34.263Z,94.02
2019-02-28T21:58:39.616Z,94.19
2019-02-28T22:03:44.955Z,94.29
2019-02-28T22:08:50.347Z,94.23
2019-02-28T22:13:56.827Z,94.17
2019-02-28T22:19:02.241Z,94.20
2019-02-28T22:24:07.852Z,94.33
2019-02-28T22:29:13.227Z,94.43
2019-02-28T22:34:25.327Z,94.57
2019-02-28T22:39:33.592Z,94.73
2019-02-28T22:44:39.157Z,94.83
2019-02-28T22:49:44.516Z,94.86
2019-02-28T22:54:49.914Z,94.99
2019-02-28T22:59:55.317Z,94.93
2019-02-28T23:05:00.768Z,95.00
2019-02-28T23:10:07.092Z,95.07
2019-02-28T23:15:12.587Z,95.09
2019-02-28T23:20:18.042Z,95.26
2019-02-28T23:25:23.628Z,95.21
2019-02-28T23:30:46.662Z,95.09
2019-02-28T23:35:52.398Z,95.40
2019-02-28T23:40:58.144Z,95.65
2019-02-28T23:46:03.682Z,95.23
2019-02-28T23:51:15.252Z,95.23
2019-02-28T23:56:20.577Z,95.22
